SCIF weather

Chollinco Airport
Llifen, Los Ríos Region, Chile

Public forecast

Using degrees Celsius for public forecast. Weather courtesy of forecast.io.

METAR (pilot weather report)

Closest report is Cañal Bajo Carlos - Hott Siebert Airport, 45.1 nm (83.5 km) WSW. Retrieved 2019/03/23 16:00 UTC (42 minutes ago):

SCJO 231600Z 18004KT 9999 BKN045 17/07 Q1021

TAF (pilot weather forecast)

Closest forecast is Cañal Bajo Carlos - Hott Siebert Airport, 45.1 nm (83.5 km) WSW. Retrieved 2019/03/23 12:33 UTC (4 hours ago):

TAF TAF SCJO 231009Z 2312/2324 VRB02KT 9999 BKN025 TN14/2312Z TX19/2319Z BECMG 2313/2315 17008KT BECMG 2321/2323 FEW030